createdAt,value
2022-11-13T00:02:44.556Z,29.65
2022-11-13T00:05:50.091Z,35.75
2022-11-13T00:08:56.564Z,37.85
2022-11-13T00:12:06.042Z,44.50
2022-11-13T00:15:13.700Z,31.92
2022-11-13T00:18:22.998Z,45.72
2022-11-13T00:21:30.732Z,29.27
2022-11-13T00:24:36.896Z,38.08
2022-11-13T00:27:43.455Z,32.58
2022-11-13T00:30:48.313Z,24.98
2022-11-13T00:37:21.919Z,32.03
2022-11-13T00:40:27.177Z,32.83
2022-11-13T00:43:32.302Z,27.48
2022-11-13T00:46:37.681Z,33.70
2022-11-13T00:49:45.243Z,28.90
2022-11-13T00:52:51.905Z,32.83
2022-11-13T00:55:56.877Z,40.67
2022-11-13T00:59:02.073Z,28.42
2022-11-13T01:02:07.041Z,24.73
2022-11-13T01:05:16.584Z,39.65
2022-11-13T01:08:24.017Z,31.08
2022-11-13T01:11:33.213Z,30.65
2022-11-13T01:14:38.887Z,29.48
2022-11-13T01:17:44.404Z,30.40
2022-11-13T01:21:04.727Z,33.80
2022-11-13T01:24:10.841Z,28.15
2022-11-13T01:27:16.192Z,41.78
2022-11-13T01:30:21.559Z,40.05
2022-11-13T01:33:27.020Z,29.77
2022-11-13T01:36:37.051Z,50.83
2022-11-13T01:39:42.217Z,45.97
2022-11-13T01:42:49.266Z,34.47
2022-11-13T01:46:10.113Z,31.35
2022-11-13T01:49:23.695Z,41.83
2022-11-13T01:52:32.752Z,30.27
2022-11-13T01:55:40.701Z,37.22
2022-11-13T01:58:47.215Z,52.72
2022-11-13T02:01:56.160Z,32.78
2022-11-13T02:05:09.105Z,28.67
2022-11-13T02:08:18.938Z,28.80
2022-11-13T02:11:24.334Z,25.45
2022-11-13T02:14:31.343Z,27.83
2022-11-13T02:17:40.624Z,36.00
2022-11-13T02:20:50.831Z,47.20
2022-11-13T02:24:04.229Z,33.03
2022-11-13T02:27:16.615Z,28.85
2022-11-13T02:30:26.920Z,38.92
2022-11-13T02:33:36.853Z,49.70
2022-11-13T02:36:43.434Z,33.20
2022-11-13T02:39:50.401Z,31.42
2022-11-13T02:43:02.684Z,31.42
2022-11-13T02:46:11.169Z,28.00
2022-11-13T02:49:19.549Z,40.22
2022-11-13T02:52:26.767Z,96.55
2022-11-13T02:55:33.725Z,60.42
2022-11-13T02:58:42.505Z,66.93
2022-11-13T03:01:49.204Z,59.72
2022-11-13T03:05:12.595Z,130.93
2022-11-13T03:08:35.754Z,153.50
2022-11-13T03:11:45.354Z,71.90
2022-11-13T03:14:58.805Z,40.53
2022-11-13T03:18:12.227Z,65.07
2022-11-13T03:21:20.295Z,116.95
2022-11-13T03:24:28.683Z,53.13
2022-11-13T03:27:55.208Z,51.22
2022-11-13T03:31:13.353Z,163.57
2022-11-13T03:34:19.681Z,214.13
2022-11-13T03:37:25.708Z,156.45
2022-11-13T03:40:32.933Z,193.63
2022-11-13T03:43:39.825Z,194.05
2022-11-13T03:46:49.989Z,284.73
2022-11-13T03:50:00.961Z,219.60
2022-11-13T03:53:07.925Z,153.88
2022-11-13T03:56:21.268Z,178.10
2022-11-13T04:02:34.730Z,178.23
2022-11-13T04:05:47.282Z,157.63
2022-11-13T04:08:55.033Z,174.68
2022-11-13T04:12:00.275Z,123.25
2022-11-13T04:15:15.201Z,109.65
2022-11-13T04:18:29.818Z,181.45
2022-11-13T04:21:37.466Z,133.70
2022-11-13T04:24:49.448Z,106.85
2022-11-13T04:31:05.441Z,102.95
2022-11-13T04:34:15.083Z,68.93
2022-11-13T04:37:20.173Z,123.15
2022-11-13T04:40:32.196Z,88.75
2022-11-13T04:43:35.135Z,102.63
2022-11-13T04:46:41.085Z,76.35
2022-11-13T04:49:49.970Z,68.97
2022-11-13T04:52:57.824Z,85.93
2022-11-13T04:56:03.296Z,90.03
2022-11-13T04:59:13.893Z,76.57
2022-11-13T05:02:20.261Z,178.52
2022-11-13T05:05:32.937Z,43.78
2022-11-13T05:08:38.551Z,90.65
2022-11-13T05:11:44.932Z,42.25
2022-11-13T05:14:52.930Z,30.20
2022-11-13T05:17:59.732Z,40.60
2022-11-13T05:21:10.286Z,36.00
2022-11-13T05:24:18.573Z,85.72
2022-11-13T05:27:44.284Z,74.03
2022-11-13T05:34:05.688Z,24.17
2022-11-13T05:37:14.718Z,104.15
2022-11-13T05:40:27.876Z,94.82
2022-11-13T05:43:39.324Z,109.47
2022-11-13T05:46:47.005Z,142.23
2022-11-13T05:49:56.139Z,131.73
2022-11-13T05:53:04.501Z,198.05
2022-11-13T05:56:12.901Z,90.03
2022-11-13T05:59:19.164Z,149.30
2022-11-13T06:02:24.605Z,108.15
2022-11-13T06:05:30.143Z,102.25
2022-11-13T06:08:38.996Z,128.43
2022-11-13T06:11:44.280Z,118.32
2022-11-13T06:14:51.771Z,162.68
2022-11-13T06:17:57.894Z,170.30
2022-11-13T06:21:04.122Z,110.05
2022-11-13T06:24:14.447Z,106.60
2022-11-13T06:27:19.872Z,82.50
2022-11-13T06:30:26.131Z,116.68
2022-11-13T06:33:32.868Z,181.30
2022-11-13T06:36:39.212Z,67.25
2022-11-13T06:39:49.772Z,80.80
2022-11-13T06:42:55.772Z,111.68
2022-11-13T06:46:07.828Z,120.85
2022-11-13T06:49:13.097Z,113.90
2022-11-13T06:52:19.882Z,84.43
2022-11-13T06:55:30.633Z,158.98
2022-11-13T06:58:38.334Z,84.72
2022-11-13T07:01:43.532Z,87.65
2022-11-13T07:04:49.302Z,63.50
2022-11-13T07:07:55.341Z,114.55
2022-11-13T07:11:07.984Z,85.47
2022-11-13T07:14:13.662Z,91.90
2022-11-13T07:17:21.339Z,73.43
2022-11-13T07:20:26.671Z,90.72
2022-11-13T07:23:34.095Z,45.53
2022-11-13T07:26:42.885Z,104.15
2022-11-13T07:29:48.594Z,60.08
2022-11-13T07:32:54.333Z,79.93
2022-11-13T07:36:02.785Z,100.50
2022-11-13T07:39:07.746Z,118.32
2022-11-13T07:42:16.365Z,50.38
2022-11-13T07:45:35.084Z,28.45
2022-11-13T07:48:42.521Z,13.30
2022-11-13T07:51:48.372Z,12.52
2022-11-13T07:55:00.605Z,15.30
2022-11-13T07:58:18.000Z,19.73
2022-11-13T08:01:23.739Z,18.30
2022-11-13T08:04:30.006Z,14.07
2022-11-13T08:07:36.648Z,15.52
2022-11-13T08:10:42.317Z,32.47
2022-11-13T08:13:58.364Z,16.88
2022-11-13T08:17:05.678Z,27.10
2022-11-13T08:20:13.937Z,29.17
2022-11-13T08:23:20.343Z,15.98
2022-11-13T08:26:30.266Z,17.25
2022-11-13T08:29:39.388Z,12.57
2022-11-13T08:32:45.666Z,11.98
2022-11-13T08:36:00.144Z,11.30
2022-11-13T08:39:08.422Z,12.45
2022-11-13T08:42:13.753Z,9.13
2022-11-13T08:45:23.837Z,11.35
2022-11-13T08:48:30.488Z,10.85
2022-11-13T08:51:36.489Z,7.90
2022-11-13T08:54:42.904Z,8.85
2022-11-13T08:57:48.913Z,8.35
2022-11-13T09:01:01.016Z,6.68
2022-11-13T09:04:08.914Z,5.72
2022-11-13T09:07:16.260Z,4.95
2022-11-13T09:10:24.480Z,6.20
2022-11-13T09:13:30.656Z,6.20
2022-11-13T09:16:43.389Z,5.10
2022-11-13T09:19:49.017Z,4.68
2022-11-13T09:23:01.691Z,4.78
2022-11-13T09:26:06.751Z,5.63
2022-11-13T09:29:14.915Z,5.45
2022-11-13T09:32:35.130Z,5.57
2022-11-13T09:35:44.992Z,5.60
2022-11-13T09:38:52.383Z,4.78
2022-11-13T09:42:03.063Z,5.60
2022-11-13T09:45:10.567Z,4.38
2022-11-13T09:48:23.860Z,5.72
2022-11-13T09:51:32.182Z,6.18
2022-11-13T09:54:39.498Z,6.03
2022-11-13T09:57:49.501Z,6.07
2022-11-13T10:01:01.505Z,5.90
2022-11-13T10:04:15.851Z,5.20
2022-11-13T10:07:26.645Z,4.55
2022-11-13T10:10:42.521Z,5.68
2022-11-13T10:13:49.456Z,5.00
2022-11-13T10:16:56.434Z,3.63
2022-11-13T10:20:09.664Z,2.88
2022-11-13T10:23:18.277Z,4.38
2022-11-13T10:26:25.187Z,2.53
2022-11-13T10:29:31.290Z,2.47
2022-11-13T10:32:37.613Z,2.05
2022-11-13T10:35:57.845Z,1.80
2022-11-13T10:39:08.373Z,1.40
2022-11-13T10:42:26.083Z,1.90
2022-11-13T10:45:31.886Z,1.70
2022-11-13T10:48:38.406Z,1.80
2022-11-13T10:51:46.499Z,1.77
2022-11-13T10:55:08.549Z,2.75
2022-11-13T10:58:19.953Z,1.98
2022-11-13T11:01:29.567Z,1.33
2022-11-13T11:04:39.182Z,1.02
2022-11-13T11:07:44.380Z,2.10
2022-11-13T11:11:13.103Z,3.95
2022-11-13T11:14:26.894Z,3.40
2022-11-13T11:17:35.928Z,1.77
2022-11-13T11:20:48.119Z,1.88
2022-11-13T11:23:59.890Z,1.17
2022-11-13T11:27:14.728Z,1.02
2022-11-13T11:30:27.004Z,1.00
2022-11-13T11:33:34.668Z,2.23
2022-11-13T11:36:47.054Z,1.80
2022-11-13T11:39:58.311Z,1.67
2022-11-13T11:43:11.583Z,1.70
2022-11-13T11:46:19.482Z,2.25
2022-11-13T11:49:26.793Z,1.48
2022-11-13T11:52:49.184Z,5.55
2022-11-13T11:56:06.061Z,6.82
2022-11-13T11:59:31.624Z,6.10
2022-11-13T12:02:52.218Z,6.55
2022-11-13T12:06:07.521Z,5.80
2022-11-13T12:09:20.058Z,5.93
2022-11-13T12:12:28.114Z,4.45
2022-11-13T12:15:38.637Z,4.40
2022-11-13T12:18:49.141Z,4.15
2022-11-13T12:22:04.212Z,3.97
2022-11-13T12:25:19.422Z,2.78
2022-11-13T12:28:34.996Z,16.67
2022-11-13T12:31:56.367Z,0.93
2022-11-13T12:35:03.669Z,0.95
2022-11-13T12:38:16.411Z,1.30
2022-11-13T12:41:27.714Z,1.55
2022-11-13T12:44:34.044Z,1.35
2022-11-13T12:47:39.952Z,1.38
2022-11-13T12:50:47.626Z,0.60
2022-11-13T12:53:56.701Z,0.98
2022-11-13T12:57:11.633Z,1.10
2022-11-13T13:00:29.051Z,1.55
2022-11-13T13:03:47.129Z,2.28
2022-11-13T13:06:58.781Z,1.55
2022-11-13T13:10:17.243Z,1.98
2022-11-13T13:13:27.706Z,1.00
2022-11-13T13:16:36.884Z,2.10
2022-11-13T13:19:44.182Z,1.23
2022-11-13T13:22:58.624Z,1.27
2022-11-13T13:26:17.973Z,1.08
2022-11-13T13:29:28.244Z,1.50
2022-11-13T13:32:40.785Z,1.45
2022-11-13T13:35:48.041Z,1.60
2022-11-13T13:38:58.541Z,1.65
2022-11-13T13:42:19.891Z,1.52
2022-11-13T13:45:30.750Z,2.20
2022-11-13T13:48:41.737Z,1.83
2022-11-13T13:51:48.934Z,2.40
2022-11-13T13:54:54.625Z,1.33
2022-11-13T13:58:05.658Z,2.88
2022-11-13T14:01:19.503Z,2.15
2022-11-13T14:04:27.929Z,2.38
2022-11-13T14:07:35.969Z,2.42
2022-11-13T14:10:41.945Z,2.70
2022-11-13T14:13:53.857Z,2.33
2022-11-13T14:17:00.696Z,1.98
2022-11-13T14:20:16.576Z,3.10
2022-11-13T14:23:31.636Z,1.98
2022-11-13T14:26:39.403Z,2.78
2022-11-13T14:29:49.436Z,2.17
2022-11-13T14:32:55.704Z,2.30
2022-11-13T14:36:01.624Z,1.90
2022-11-13T14:39:10.161Z,1.38
2022-11-13T14:42:20.506Z,1.30
2022-11-13T14:45:29.813Z,1.73
2022-11-13T14:48:38.011Z,4.32
2022-11-13T14:51:43.781Z,2.17
2022-11-13T14:55:16.002Z,1.15
2022-11-13T14:58:15.734Z,3.25
2022-11-13T15:01:27.735Z,1.77
2022-11-13T15:04:39.303Z,2.03
2022-11-13T15:07:46.025Z,2.90
2022-11-13T15:10:53.813Z,1.65
2022-11-13T15:14:04.197Z,1.00
2022-11-13T15:17:17.601Z,1.20
2022-11-13T15:20:27.727Z,1.75
2022-11-13T15:23:32.937Z,1.50
2022-11-13T15:26:39.780Z,1.70
2022-11-13T15:29:48.035Z,2.38
2022-11-13T15:32:57.473Z,2.15
2022-11-13T15:36:02.728Z,2.05
2022-11-13T15:39:13.151Z,2.00
2022-11-13T15:42:29.952Z,2.67
2022-11-13T15:45:44.034Z,2.78
2022-11-13T15:48:55.493Z,2.78
2022-11-13T15:52:01.753Z,2.88
2022-11-13T15:55:19.496Z,2.63
2022-11-13T15:58:27.279Z,3.72
2022-11-13T16:01:38.094Z,3.75
2022-11-13T16:04:56.529Z,4.45
2022-11-13T16:08:04.793Z,5.13
2022-11-13T16:11:10.726Z,4.68
2022-11-13T16:14:24.385Z,5.13
2022-11-13T16:17:31.357Z,4.28
2022-11-13T16:20:39.568Z,4.38
2022-11-13T16:23:45.773Z,5.30
2022-11-13T16:26:57.546Z,5.47
2022-11-13T16:30:06.920Z,4.20
2022-11-13T16:33:13.704Z,5.57
2022-11-13T16:36:26.248Z,4.22
2022-11-13T16:39:33.796Z,4.25
2022-11-13T16:42:45.253Z,3.35
2022-11-13T16:45:52.221Z,2.78
2022-11-13T16:48:58.336Z,3.67
2022-11-13T16:52:06.438Z,3.42
2022-11-13T16:55:15.518Z,2.65
2022-11-13T16:58:20.793Z,5.22
2022-11-13T17:01:30.384Z,3.42
2022-11-13T17:04:35.934Z,3.33
2022-11-13T17:07:44.926Z,3.72
2022-11-13T17:10:50.174Z,3.83
2022-11-13T17:13:59.041Z,3.65
2022-11-13T17:17:05.288Z,4.05
2022-11-13T17:20:12.897Z,4.47
2022-11-13T17:23:21.474Z,4.25
2022-11-13T17:26:31.672Z,4.78
2022-11-13T17:29:37.002Z,4.38
2022-11-13T17:32:43.299Z,4.72
2022-11-13T17:35:49.765Z,3.78
2022-11-13T17:39:04.409Z,5.25
2022-11-13T17:42:12.121Z,4.40
2022-11-13T17:45:20.513Z,4.72
2022-11-13T17:48:25.763Z,3.78
2022-11-13T17:51:36.201Z,4.75
2022-11-13T17:54:46.799Z,4.38
2022-11-13T17:57:54.391Z,3.95
2022-11-13T18:01:07.723Z,3.50
2022-11-13T18:04:13.796Z,4.28
2022-11-13T18:07:21.177Z,3.67
2022-11-13T18:10:33.174Z,2.47
2022-11-13T18:13:39.707Z,2.90
2022-11-13T18:16:47.183Z,3.25
2022-11-13T18:20:01.548Z,3.10
2022-11-13T18:23:09.434Z,3.22
2022-11-13T18:26:18.097Z,3.75
2022-11-13T18:29:25.318Z,3.50
2022-11-13T18:32:31.049Z,3.25
2022-11-13T18:35:39.175Z,4.00
2022-11-13T18:38:45.273Z,4.57
2022-11-13T18:41:59.428Z,4.47
2022-11-13T18:45:06.531Z,3.97
2022-11-13T18:48:12.989Z,6.63
2022-11-13T18:51:25.996Z,5.25
2022-11-13T18:54:34.177Z,5.05
2022-11-13T18:57:44.471Z,5.20
2022-11-13T19:00:52.215Z,6.25
2022-11-13T19:04:21.800Z,6.68
2022-11-13T19:07:29.684Z,6.82
2022-11-13T19:10:37.385Z,6.88
2022-11-13T19:13:47.891Z,6.60
2022-11-13T19:16:55.885Z,10.60
2022-11-13T19:20:04.806Z,7.80
2022-11-13T19:23:12.463Z,10.10
2022-11-13T19:26:21.222Z,8.52
2022-11-13T19:29:31.863Z,9.38
2022-11-13T19:32:37.861Z,9.18
2022-11-13T19:35:43.157Z,12.13
2022-11-13T19:38:53.024Z,11.35
2022-11-13T19:42:03.315Z,10.65
2022-11-13T19:45:17.986Z,13.40
2022-11-13T19:48:23.551Z,13.23
2022-11-13T19:51:39.502Z,11.45
2022-11-13T19:54:50.426Z,13.07
2022-11-13T19:57:59.531Z,11.95
2022-11-13T20:01:14.619Z,13.63
2022-11-13T20:04:21.251Z,13.43
2022-11-13T20:07:42.806Z,14.25
2022-11-13T20:10:51.676Z,11.95
2022-11-13T20:14:00.126Z,11.30
2022-11-13T20:17:09.383Z,11.15
2022-11-13T20:20:22.981Z,12.05
2022-11-13T20:23:34.420Z,11.88
2022-11-13T20:26:45.564Z,10.30
2022-11-13T20:30:17.002Z,10.07
2022-11-13T20:33:28.103Z,11.00
2022-11-13T20:36:42.359Z,10.88
2022-11-13T20:39:58.711Z,11.98
2022-11-13T20:43:07.473Z,10.43
2022-11-13T20:46:17.532Z,13.43
2022-11-13T20:49:29.459Z,12.90
2022-11-13T20:52:48.434Z,12.45
2022-11-13T20:55:56.854Z,13.20
2022-11-13T20:59:04.252Z,12.50
2022-11-13T21:02:09.827Z,12.25
2022-11-13T21:05:22.099Z,11.35
2022-11-13T21:08:30.978Z,12.13
2022-11-13T21:11:36.629Z,12.50
2022-11-13T21:14:45.486Z,11.88
2022-11-13T21:17:54.705Z,13.75
2022-11-13T21:21:10.329Z,13.80
2022-11-13T21:24:15.331Z,13.70
2022-11-13T21:27:23.459Z,16.67
2022-11-13T21:30:34.372Z,12.43
2022-11-13T21:33:45.763Z,12.60
2022-11-13T21:36:59.969Z,15.35
2022-11-13T21:40:18.396Z,13.77
2022-11-13T21:43:25.814Z,14.23
2022-11-13T21:46:34.439Z,13.48
2022-11-13T21:49:40.249Z,13.27
2022-11-13T21:52:52.103Z,14.65
2022-11-13T21:55:57.661Z,15.80
2022-11-13T21:59:07.231Z,16.40
2022-11-13T22:02:13.721Z,16.23
2022-11-13T22:05:24.573Z,18.73
2022-11-13T22:08:38.114Z,19.88
2022-11-13T22:11:55.725Z,18.08
2022-11-13T22:15:03.674Z,19.42
2022-11-13T22:18:09.805Z,19.73
2022-11-13T22:21:17.444Z,21.33
2022-11-13T22:24:28.057Z,18.40
2022-11-13T22:27:37.115Z,20.85
2022-11-13T22:30:44.857Z,16.00
2022-11-13T22:33:54.641Z,14.73
2022-11-13T22:37:03.255Z,11.55
2022-11-13T22:40:17.872Z,9.85
2022-11-13T22:43:28.259Z,10.38
2022-11-13T22:46:39.057Z,9.15
2022-11-13T22:49:50.252Z,5.88
2022-11-13T22:52:56.972Z,8.55
2022-11-13T22:56:10.663Z,9.25
2022-11-13T22:59:18.931Z,7.57
2022-11-13T23:02:26.056Z,7.10
2022-11-13T23:05:31.831Z,6.95
2022-11-13T23:08:47.376Z,6.68
2022-11-13T23:11:56.371Z,6.57
2022-11-13T23:15:05.382Z,6.47
2022-11-13T23:18:10.948Z,6.78
2022-11-13T23:21:16.779Z,5.70
2022-11-13T23:24:27.830Z,6.72
2022-11-13T23:27:34.854Z,7.18
2022-11-13T23:30:43.334Z,6.30
2022-11-13T23:33:49.189Z,6.88
2022-11-13T23:36:54.681Z,7.30
2022-11-13T23:40:02.527Z,8.43
2022-11-13T23:43:07.743Z,7.18
2022-11-13T23:46:20.144Z,6.90
2022-11-13T23:49:25.466Z,7.22
2022-11-13T23:52:31.299Z,8.32
2022-11-13T23:55:36.713Z,6.82
2022-11-13T23:58:42.394Z,8.15
